createdAt,value
2022-12-23T00:00:21.126Z,82.89
2022-12-23T00:02:24.115Z,83.39
2022-12-23T00:04:28.435Z,82.64
2022-12-23T00:06:31.266Z,82.89
2022-12-23T00:08:35.744Z,83.00
2022-12-23T00:10:39.748Z,83.01
2022-12-23T00:13:00.111Z,83.49
2022-12-23T00:15:08.726Z,83.62
2022-12-23T00:17:21.979Z,83.32
2022-12-23T00:19:25.712Z,83.86
2022-12-23T00:21:29.793Z,83.96
2022-12-23T00:23:33.098Z,83.74
2022-12-23T00:25:44.621Z,83.23
2022-12-23T00:28:01.263Z,83.54
2022-12-23T00:30:05.326Z,83.22
2022-12-23T00:32:08.277Z,84.16
2022-12-23T00:34:12.779Z,83.49
2022-12-23T00:36:20.177Z,83.51
2022-12-23T00:38:38.820Z,83.27
2022-12-23T00:40:59.278Z,83.76
2022-12-23T00:43:02.237Z,83.67
2022-12-23T00:45:16.375Z,83.60
2022-12-23T00:47:33.028Z,83.57
2022-12-23T00:49:44.624Z,84.13
2022-12-23T00:51:47.638Z,83.58
2022-12-23T00:53:51.809Z,83.38
2022-12-23T00:55:54.603Z,84.15
2022-12-23T00:57:57.391Z,83.70
2022-12-23T01:00:00.247Z,83.63
2022-12-23T01:02:21.052Z,83.64
2022-12-23T01:04:42.561Z,83.42
2022-12-23T01:06:45.354Z,83.32
2022-12-23T01:08:48.153Z,83.77
2022-12-23T01:10:52.410Z,83.83
2022-12-23T01:12:55.360Z,84.29
2022-12-23T01:14:58.168Z,84.46
2022-12-23T01:17:01.438Z,84.23
2022-12-23T01:19:04.267Z,83.94
2022-12-23T01:21:09.133Z,84.63
2022-12-23T01:23:11.743Z,83.89
2022-12-23T01:25:14.902Z,84.47
2022-12-23T01:27:19.212Z,84.47
2022-12-23T01:29:22.159Z,83.98
2022-12-23T01:31:26.309Z,85.07
2022-12-23T01:33:29.678Z,84.58
2022-12-23T01:35:32.479Z,84.47
2022-12-23T01:37:35.277Z,84.47
2022-12-23T01:39:38.073Z,84.02
2022-12-23T01:41:58.329Z,84.87
2022-12-23T01:44:53.533Z,84.43
2022-12-23T01:46:56.379Z,84.47
2022-12-23T01:48:59.266Z,84.76
2022-12-23T01:51:06.829Z,84.47
2022-12-23T01:53:13.108Z,84.36
2022-12-23T01:55:20.069Z,84.58
2022-12-23T01:57:23.312Z,84.21
2022-12-23T01:59:40.208Z,84.83
2022-12-23T02:02:02.093Z,84.07
2022-12-23T02:04:07.627Z,84.67
2022-12-23T02:06:32.548Z,84.60
2022-12-23T02:08:52.830Z,83.94
2022-12-23T02:11:15.221Z,84.57
2022-12-23T02:13:27.402Z,84.81
2022-12-23T02:15:59.449Z,84.32
2022-12-23T02:18:18.293Z,84.74
2022-12-23T02:20:44.216Z,83.90
2022-12-23T02:23:08.276Z,84.17
2022-12-23T02:25:36.540Z,84.71
2022-12-23T02:27:56.324Z,83.85
2022-12-23T02:30:33.018Z,83.60
2022-12-23T02:32:45.155Z,83.68
2022-12-23T02:34:55.578Z,84.39
2022-12-23T02:37:04.550Z,84.59
2022-12-23T02:39:10.619Z,84.43
2022-12-23T02:41:19.562Z,84.15
2022-12-23T02:43:30.915Z,84.58
2022-12-23T02:45:39.654Z,84.00
2022-12-23T02:47:48.640Z,84.84
2022-12-23T02:49:55.310Z,84.06
2022-12-23T02:52:00.801Z,84.21
2022-12-23T02:54:06.648Z,84.71
2022-12-23T02:56:11.889Z,84.07
2022-12-23T02:58:19.028Z,84.18
2022-12-23T03:00:22.735Z,84.15
2022-12-23T03:02:27.080Z,83.56
2022-12-23T03:04:29.936Z,83.73
2022-12-23T03:06:38.487Z,83.96
2022-12-23T03:08:45.318Z,83.89
2022-12-23T03:11:14.084Z,84.00
2022-12-23T03:13:28.180Z,83.80
2022-12-23T03:15:39.841Z,84.17
2022-12-23T03:18:01.253Z,83.63
2022-12-23T03:20:12.826Z,82.91
2022-12-23T03:22:25.008Z,83.53
2022-12-23T03:24:36.497Z,83.41
2022-12-23T03:26:46.720Z,84.19
2022-12-23T03:28:55.407Z,83.60
2022-12-23T03:31:01.621Z,84.02
2022-12-23T03:33:12.256Z,83.92
2022-12-23T03:35:18.904Z,84.44
2022-12-23T03:37:25.126Z,83.73
2022-12-23T03:39:42.213Z,83.93
2022-12-23T03:41:51.935Z,83.70
2022-12-23T03:44:01.484Z,83.43
2022-12-23T03:46:10.129Z,84.14
2022-12-23T03:48:20.559Z,84.20
2022-12-23T03:50:25.513Z,84.42
2022-12-23T03:52:33.191Z,83.69
2022-12-23T03:54:41.872Z,83.76
2022-12-23T03:56:48.457Z,84.01
2022-12-23T03:58:57.237Z,83.78
2022-12-23T04:01:08.824Z,83.85
2022-12-23T04:03:20.264Z,84.36
2022-12-23T04:05:26.317Z,84.49
2022-12-23T04:07:35.379Z,84.49
2022-12-23T04:09:39.752Z,84.38
2022-12-23T04:11:43.060Z,84.27
2022-12-23T04:13:48.011Z,83.66
2022-12-23T04:15:51.331Z,83.94
2022-12-23T04:17:55.857Z,83.55
2022-12-23T04:20:00.315Z,83.23
2022-12-23T04:22:03.326Z,83.51
2022-12-23T04:24:06.627Z,83.37
2022-12-23T04:26:09.474Z,83.62
2022-12-23T04:28:12.281Z,83.93
2022-12-23T04:30:15.332Z,83.04
2022-12-23T04:32:18.119Z,83.39
2022-12-23T04:34:21.031Z,83.30
2022-12-23T04:36:25.326Z,83.67
2022-12-23T04:38:28.244Z,83.35
2022-12-23T04:40:31.568Z,83.40
2022-12-23T04:42:34.629Z,83.11
2022-12-23T04:44:37.535Z,82.98
2022-12-23T04:46:40.335Z,83.38
2022-12-23T04:48:43.191Z,82.98
2022-12-23T04:50:46.079Z,83.75
2022-12-23T04:52:50.215Z,83.72
2022-12-23T04:54:53.127Z,83.34
2022-12-23T04:56:55.980Z,82.90
2022-12-23T04:59:01.845Z,83.54
2022-12-23T05:01:06.593Z,83.21
2022-12-23T05:03:09.494Z,82.99
2022-12-23T05:05:12.386Z,82.94
2022-12-23T05:07:15.269Z,83.33
2022-12-23T05:09:19.678Z,83.10
2022-12-23T05:11:22.604Z,83.28
2022-12-23T05:13:25.460Z,83.06
2022-12-23T05:15:28.307Z,83.01
2022-12-23T05:17:31.076Z,82.59
2022-12-23T05:19:33.847Z,82.96
2022-12-23T05:21:36.634Z,83.10
2022-12-23T05:23:39.806Z,82.89
2022-12-23T05:25:43.966Z,82.70
2022-12-23T05:27:46.784Z,83.25
2022-12-23T05:29:49.702Z,83.25
2022-12-23T05:31:52.582Z,82.94
2022-12-23T05:33:58.392Z,83.32
2022-12-23T05:36:04.075Z,83.06
2022-12-23T05:38:06.892Z,82.72
2022-12-23T05:40:10.834Z,82.86
2022-12-23T05:42:19.296Z,82.83
2022-12-23T05:44:22.249Z,82.51
2022-12-23T05:46:27.063Z,82.44
2022-12-23T05:48:30.338Z,83.02
2022-12-23T05:50:33.195Z,82.58
2022-12-23T05:52:37.831Z,82.49
2022-12-23T05:54:40.619Z,82.61
2022-12-23T05:56:43.781Z,83.03
2022-12-23T05:58:47.923Z,82.86
2022-12-23T06:00:50.817Z,83.11
2022-12-23T06:02:54.512Z,82.87
2022-12-23T06:04:57.507Z,82.91
2022-12-23T06:07:00.406Z,82.68
2022-12-23T06:09:03.235Z,81.92
2022-12-23T06:11:06.457Z,82.73
2022-12-23T06:13:09.329Z,82.47
2022-12-23T06:15:13.719Z,82.60
2022-12-23T06:17:16.541Z,82.65
2022-12-23T06:19:19.665Z,82.67
2022-12-23T06:21:22.645Z,83.08
2022-12-23T06:23:26.576Z,83.14
2022-12-23T06:25:29.447Z,83.63
2022-12-23T06:27:32.573Z,82.86
2022-12-23T06:29:35.419Z,82.75
2022-12-23T06:31:39.680Z,82.86
2022-12-23T06:33:42.618Z,83.52
2022-12-23T06:35:45.490Z,83.11
2022-12-23T06:37:48.454Z,83.10
2022-12-23T06:39:51.299Z,83.59
2022-12-23T06:41:54.089Z,83.57
2022-12-23T06:43:57.040Z,83.94
2022-12-23T06:45:59.932Z,83.21
2022-12-23T06:48:04.462Z,82.95
2022-12-23T06:50:11.237Z,82.85
2022-12-23T06:52:14.052Z,82.65
2022-12-23T06:54:16.915Z,82.87
2022-12-23T06:56:19.790Z,82.68
2022-12-23T06:58:22.769Z,82.93
2022-12-23T07:00:25.838Z,82.38
2022-12-23T07:02:28.830Z,83.03
2022-12-23T07:04:33.162Z,83.10
2022-12-23T07:06:35.992Z,82.56
2022-12-23T07:08:38.885Z,82.80
2022-12-23T07:10:41.612Z,82.71
2022-12-23T07:12:50.357Z,82.26
2022-12-23T07:14:53.654Z,82.14
2022-12-23T07:16:56.582Z,82.23
2022-12-23T07:18:59.460Z,81.63
2022-12-23T07:21:04.710Z,81.75
2022-12-23T07:23:07.553Z,82.40
2022-12-23T07:25:10.863Z,82.29
2022-12-23T07:27:14.156Z,81.64
2022-12-23T07:29:17.065Z,81.89
2022-12-23T07:31:19.903Z,82.31
2022-12-23T07:33:22.932Z,81.54
2022-12-23T07:35:25.715Z,81.83
2022-12-23T07:37:30.183Z,82.55
2022-12-23T07:39:33.141Z,82.52
2022-12-23T07:41:35.912Z,82.65
2022-12-23T07:43:42.216Z,82.78
2022-12-23T07:45:45.088Z,82.94
2022-12-23T07:47:48.086Z,82.81
2022-12-23T07:49:51.033Z,82.71
2022-12-23T07:51:53.841Z,82.66
2022-12-23T07:53:58.399Z,82.05
2022-12-23T07:56:01.571Z,82.11
2022-12-23T07:58:04.486Z,82.36
2022-12-23T08:00:11.462Z,81.93
2022-12-23T08:02:17.439Z,82.40
2022-12-23T08:04:20.459Z,81.46
2022-12-23T08:06:23.441Z,81.59
2022-12-23T08:08:26.302Z,82.24
2022-12-23T08:10:30.430Z,81.71
2022-12-23T08:12:33.933Z,81.62
2022-12-23T08:14:36.829Z,82.24
2022-12-23T08:16:43.646Z,81.76
2022-12-23T08:18:47.262Z,81.15
2022-12-23T08:20:55.314Z,81.52
2022-12-23T08:22:58.150Z,81.63
2022-12-23T08:25:01.011Z,81.41
2022-12-23T08:27:05.194Z,81.55
2022-12-23T08:29:08.009Z,81.41
2022-12-23T08:31:12.523Z,80.84
2022-12-23T08:33:15.387Z,81.13
2022-12-23T08:35:18.194Z,80.60
2022-12-23T08:37:21.023Z,80.53
2022-12-23T08:39:24.014Z,81.23
2022-12-23T08:41:28.910Z,80.86
2022-12-23T08:43:36.112Z,81.10
2022-12-23T08:45:39.966Z,80.92
2022-12-23T08:47:42.751Z,80.94
2022-12-23T08:49:45.516Z,80.71
2022-12-23T08:51:48.686Z,80.97
2022-12-23T08:53:57.965Z,81.20
2022-12-23T08:56:04.321Z,80.69
2022-12-23T08:58:08.146Z,81.11
2022-12-23T09:00:13.283Z,80.81
2022-12-23T09:02:16.649Z,80.93
2022-12-23T09:04:19.763Z,81.06
2022-12-23T09:06:29.119Z,80.51
2022-12-23T09:08:33.367Z,80.88
2022-12-23T09:10:41.079Z,80.48
2022-12-23T09:12:43.891Z,81.21
2022-12-23T09:14:48.396Z,80.73
2022-12-23T09:16:52.890Z,81.08
2022-12-23T09:18:55.988Z,80.79
2022-12-23T09:20:59.810Z,80.74
2022-12-23T09:23:03.725Z,80.59
2022-12-23T09:25:06.934Z,80.63
2022-12-23T09:27:09.754Z,80.99
2022-12-23T09:29:12.562Z,81.13
2022-12-23T09:31:16.143Z,80.74
2022-12-23T09:33:20.727Z,80.45
2022-12-23T09:35:23.939Z,81.08
2022-12-23T09:37:26.801Z,81.17
2022-12-23T09:39:29.653Z,80.75
2022-12-23T09:41:54.547Z,80.71
2022-12-23T09:44:12.778Z,81.04
2022-12-23T09:46:19.925Z,81.10
2022-12-23T09:48:29.638Z,80.94
2022-12-23T09:50:35.595Z,81.18
2022-12-23T09:52:45.494Z,81.74
2022-12-23T09:54:52.833Z,81.74
2022-12-23T09:56:59.453Z,81.56
2022-12-23T09:59:13.318Z,81.65
2022-12-23T10:01:24.080Z,81.74
2022-12-23T10:03:35.750Z,81.63
2022-12-23T10:05:51.300Z,81.43
2022-12-23T10:07:57.963Z,81.76
2022-12-23T10:10:08.363Z,81.29
2022-12-23T10:12:25.320Z,81.15
2022-12-23T10:14:32.942Z,81.31
2022-12-23T10:16:42.264Z,81.19
2022-12-23T10:18:54.579Z,81.44
2022-12-23T10:21:04.036Z,81.59
2022-12-23T10:23:14.984Z,81.68
2022-12-23T10:25:23.906Z,81.56
2022-12-23T10:27:33.287Z,81.89
2022-12-23T10:29:36.165Z,81.58
2022-12-23T10:31:51.871Z,82.00
2022-12-23T10:34:04.137Z,81.66
2022-12-23T10:36:15.054Z,81.80
2022-12-23T10:38:33.642Z,81.87
2022-12-23T10:40:47.502Z,81.60
2022-12-23T10:43:04.321Z,81.79
2022-12-23T10:45:37.317Z,81.62
2022-12-23T10:47:51.159Z,81.77
2022-12-23T10:50:10.059Z,81.73
2022-12-23T10:52:19.160Z,81.79
2022-12-23T10:54:25.830Z,81.63
2022-12-23T10:56:30.321Z,82.29
2022-12-23T10:58:33.678Z,82.22
2022-12-23T11:00:40.974Z,81.80
2022-12-23T11:02:50.732Z,81.87
2022-12-23T11:04:53.728Z,82.08
2022-12-23T11:07:26.319Z,82.34
2022-12-23T11:09:25.885Z,82.42
2022-12-23T11:11:54.222Z,82.48
2022-12-23T11:13:57.186Z,82.56
2022-12-23T11:16:15.810Z,82.69
2022-12-23T11:18:21.485Z,82.87
2022-12-23T11:20:24.662Z,82.44
2022-12-23T11:22:28.799Z,82.42
2022-12-23T11:24:38.043Z,82.44
2022-12-23T11:26:44.861Z,82.14
2022-12-23T11:28:51.940Z,82.41
2022-12-23T11:30:57.221Z,82.45
2022-12-23T11:33:00.428Z,82.66
2022-12-23T11:35:03.327Z,82.65
2022-12-23T11:37:07.678Z,82.19
2022-12-23T11:39:23.142Z,82.73
2022-12-23T11:41:27.623Z,82.87
2022-12-23T11:43:33.480Z,82.80
2022-12-23T11:45:38.073Z,82.57
2022-12-23T11:47:44.440Z,82.65
2022-12-23T11:49:50.385Z,82.55
2022-12-23T11:52:03.251Z,82.69
2022-12-23T11:54:06.197Z,82.73
2022-12-23T11:56:13.566Z,83.09
2022-12-23T11:58:20.619Z,83.22
2022-12-23T12:00:30.234Z,83.58
2022-12-23T12:02:37.278Z,83.76
2022-12-23T12:04:41.645Z,83.47
2022-12-23T12:06:49.855Z,83.33
2022-12-23T12:08:59.936Z,83.78
2022-12-23T12:11:07.199Z,83.49
2022-12-23T12:13:25.008Z,83.75
2022-12-23T12:15:37.969Z,83.64
2022-12-23T12:17:46.243Z,83.95
2022-12-23T12:19:58.440Z,83.99
2022-12-23T12:22:07.116Z,84.24
2022-12-23T12:24:19.454Z,84.10
2022-12-23T12:26:27.466Z,83.99
2022-12-23T12:28:35.961Z,84.44
2022-12-23T12:30:46.335Z,83.97
2022-12-23T12:32:58.904Z,84.47
2022-12-23T12:35:04.932Z,84.28
2022-12-23T12:37:19.191Z,84.59
2022-12-23T12:39:27.538Z,84.53
2022-12-23T12:41:35.575Z,84.35
2022-12-23T12:43:45.520Z,84.17
2022-12-23T12:45:53.718Z,84.26
2022-12-23T12:48:18.138Z,84.68
2022-12-23T12:50:27.759Z,84.58
2022-12-23T12:52:37.084Z,84.67
2022-12-23T12:54:45.121Z,85.04
2022-12-23T12:56:51.293Z,85.15
2022-12-23T12:58:56.930Z,85.45
2022-12-23T13:01:13.975Z,84.83
2022-12-23T13:03:33.123Z,84.99
2022-12-23T13:06:00.692Z,85.17
2022-12-23T13:08:23.157Z,85.62
2022-12-23T13:10:35.372Z,85.43
2022-12-23T13:12:52.302Z,85.66
2022-12-23T13:15:03.765Z,85.45
2022-12-23T13:17:13.567Z,86.03
2022-12-23T13:19:30.793Z,85.96
2022-12-23T13:21:39.828Z,85.57
2022-12-23T13:23:52.576Z,85.70
2022-12-23T13:26:02.604Z,85.58
2022-12-23T13:28:19.112Z,85.39
2022-12-23T13:30:27.483Z,85.48
2022-12-23T13:32:46.551Z,85.52
2022-12-23T13:35:00.474Z,85.79
2022-12-23T13:37:16.957Z,85.75
2022-12-23T13:39:33.188Z,85.69
2022-12-23T13:41:41.210Z,85.99
2022-12-23T13:43:49.215Z,85.87
2022-12-23T13:45:55.736Z,86.17
2022-12-23T13:48:12.259Z,86.09
2022-12-23T13:50:21.877Z,86.36
2022-12-23T13:52:35.173Z,86.23
2022-12-23T13:54:50.187Z,86.08
2022-12-23T13:57:08.093Z,86.68
2022-12-23T13:59:12.150Z,86.84
2022-12-23T14:01:33.419Z,86.83
2022-12-23T14:03:38.314Z,87.18
2022-12-23T14:05:45.192Z,87.25
2022-12-23T14:07:48.152Z,87.15
2022-12-23T14:09:54.604Z,87.38
2022-12-23T14:12:02.629Z,86.99
2022-12-23T14:14:19.444Z,87.30
2022-12-23T14:16:38.360Z,87.13
2022-12-23T14:18:57.220Z,86.98
2022-12-23T14:21:09.494Z,87.56
2022-12-23T14:23:33.104Z,87.40
2022-12-23T14:26:02.983Z,87.42
2022-12-23T14:28:14.511Z,87.58
2022-12-23T14:30:22.306Z,87.64
2022-12-23T14:32:29.006Z,87.89
2022-12-23T14:34:33.917Z,87.76
2022-12-23T14:36:36.761Z,87.60
2022-12-23T14:38:40.169Z,87.80
2022-12-23T14:41:01.239Z,88.16
2022-12-23T14:43:52.610Z,87.86
2022-12-23T14:45:57.578Z,87.78
2022-12-23T14:48:01.784Z,88.16
2022-12-23T14:50:35.697Z,88.30
2022-12-23T14:52:50.748Z,88.46
2022-12-23T14:55:21.031Z,88.58
2022-12-23T14:57:20.044Z,88.37
2022-12-23T14:59:31.609Z,88.74
2022-12-23T15:01:39.899Z,89.14
2022-12-23T15:03:48.515Z,88.69
2022-12-23T15:05:51.921Z,88.65
2022-12-23T15:07:56.864Z,88.12
2022-12-23T15:10:01.687Z,87.88
2022-12-23T15:12:14.479Z,88.19
2022-12-23T15:14:26.039Z,87.80
2022-12-23T15:16:35.132Z,87.76
2022-12-23T15:18:37.986Z,87.76
2022-12-23T15:20:42.246Z,88.18
2022-12-23T15:22:46.677Z,88.19
2022-12-23T15:24:49.484Z,87.92
2022-12-23T15:27:24.496Z,88.14
2022-12-23T15:29:18.335Z,88.23
2022-12-23T15:31:27.952Z,88.52
2022-12-23T15:34:02.369Z,89.16
2022-12-23T15:36:03.072Z,88.93
2022-12-23T15:38:06.834Z,88.50
2022-12-23T15:40:25.122Z,88.69
2022-12-23T15:42:31.237Z,88.87
2022-12-23T15:44:38.121Z,88.84
2022-12-23T15:46:41.406Z,88.96
2022-12-23T15:48:44.823Z,88.40
2022-12-23T15:50:48.112Z,88.75
2022-12-23T15:52:57.244Z,89.03
2022-12-23T15:55:11.050Z,88.99
2022-12-23T15:57:20.038Z,89.60
2022-12-23T15:59:26.282Z,89.53
2022-12-23T16:01:37.192Z,88.99
2022-12-23T16:03:42.551Z,89.06
2022-12-23T16:05:45.772Z,89.16
2022-12-23T16:07:48.611Z,88.58
2022-12-23T16:09:54.858Z,88.70
2022-12-23T16:11:59.597Z,88.79
2022-12-23T16:14:03.288Z,89.40
2022-12-23T16:16:32.087Z,89.87
2022-12-23T16:18:47.307Z,90.11
2022-12-23T16:20:54.506Z,90.45
2022-12-23T16:23:01.525Z,90.47
2022-12-23T16:25:12.829Z,90.37
2022-12-23T16:27:18.883Z,90.14
2022-12-23T16:29:22.223Z,89.19
2022-12-23T16:31:26.069Z,88.66
2022-12-23T16:33:37.000Z,88.00
2022-12-23T16:35:42.788Z,88.15
2022-12-23T16:37:50.884Z,87.66
2022-12-23T16:39:53.998Z,88.11
2022-12-23T16:41:58.154Z,88.14
2022-12-23T16:44:01.670Z,88.74
2022-12-23T16:46:05.365Z,88.41
2022-12-23T16:48:18.315Z,88.68
2022-12-23T16:50:21.262Z,88.98
2022-12-23T16:52:24.498Z,89.19
2022-12-23T16:54:27.276Z,89.51
2022-12-23T16:56:34.945Z,89.60
2022-12-23T16:58:43.054Z,89.46
2022-12-23T17:00:46.231Z,89.29
2022-12-23T17:02:49.170Z,88.86
2022-12-23T17:04:52.399Z,88.43
2022-12-23T17:06:55.213Z,87.79
2022-12-23T17:08:58.106Z,87.55
2022-12-23T17:11:03.660Z,86.94
2022-12-23T17:13:06.482Z,86.82
2022-12-23T17:15:17.217Z,86.22
2022-12-23T17:17:21.402Z,86.42
2022-12-23T17:19:28.979Z,86.67
2022-12-23T17:21:34.936Z,86.17
2022-12-23T17:23:37.733Z,86.05
2022-12-23T17:25:40.525Z,85.74
2022-12-23T17:27:45.883Z,84.62
2022-12-23T17:29:48.714Z,84.42
2022-12-23T17:31:53.254Z,84.33
2022-12-23T17:33:56.155Z,83.36
2022-12-23T17:35:59.121Z,83.08
2022-12-23T17:38:02.259Z,83.48
2022-12-23T17:40:06.048Z,83.62
2022-12-23T17:42:18.869Z,83.39
2022-12-23T17:44:24.840Z,82.66
2022-12-23T17:46:28.519Z,82.04
2022-12-23T17:48:33.115Z,81.71
2022-12-23T17:50:36.708Z,80.85
2022-12-23T17:52:42.945Z,79.92
2022-12-23T17:54:47.414Z,79.44
2022-12-23T17:56:51.840Z,79.77
2022-12-23T17:58:55.887Z,78.89
2022-12-23T18:00:58.789Z,77.84
2022-12-23T18:03:02.088Z,76.83
2022-12-23T18:05:20.958Z,76.89
2022-12-23T18:07:24.122Z,77.51
2022-12-23T18:09:27.135Z,77.51
2022-12-23T18:11:35.447Z,77.05
2022-12-23T18:13:38.263Z,76.03
2022-12-23T18:15:43.566Z,75.59
2022-12-23T18:17:46.369Z,75.79
2022-12-23T18:19:49.410Z,75.77
2022-12-23T18:21:53.724Z,75.41
2022-12-23T18:23:59.355Z,74.96
2022-12-23T18:26:02.345Z,75.65
2022-12-23T18:28:05.424Z,76.99
2022-12-23T18:30:09.631Z,76.92
2022-12-23T18:32:20.751Z,76.75
2022-12-23T18:34:23.707Z,76.91
2022-12-23T18:36:29.314Z,77.31
2022-12-23T18:38:33.688Z,76.79
2022-12-23T18:40:36.561Z,75.93
2022-12-23T18:42:39.387Z,75.79
2022-12-23T18:44:43.083Z,75.76
2022-12-23T18:46:46.009Z,75.31
2022-12-23T18:48:49.509Z,75.69
2022-12-23T18:50:52.358Z,76.03
2022-12-23T18:52:56.066Z,75.49
2022-12-23T18:55:00.243Z,75.01
2022-12-23T18:57:04.371Z,75.46
2022-12-23T18:59:07.384Z,74.16
2022-12-23T19:01:12.376Z,73.99
2022-12-23T19:03:23.067Z,73.81
2022-12-23T19:05:28.203Z,73.98
2022-12-23T19:07:31.093Z,74.36
2022-12-23T19:09:33.960Z,74.56
2022-12-23T19:11:38.121Z,74.27
2022-12-23T19:13:41.325Z,74.27
2022-12-23T19:15:44.863Z,74.18
2022-12-23T19:17:47.727Z,74.00
2022-12-23T19:19:50.613Z,74.26
2022-12-23T19:21:53.446Z,74.62
2022-12-23T19:23:56.288Z,74.47
2022-12-23T19:25:59.114Z,74.20
2022-12-23T19:28:03.370Z,74.64
2022-12-23T19:30:07.437Z,73.65
2022-12-23T19:32:10.228Z,73.28
2022-12-23T19:34:15.652Z,73.25
2022-12-23T19:36:22.548Z,73.25
2022-12-23T19:38:26.925Z,72.84
2022-12-23T19:40:30.929Z,72.67
2022-12-23T19:42:34.533Z,72.75
2022-12-23T19:44:38.644Z,73.06
2022-12-23T19:46:41.626Z,73.71
2022-12-23T19:48:44.491Z,73.77
2022-12-23T19:50:47.276Z,73.89
2022-12-23T19:52:50.638Z,73.59
2022-12-23T19:54:53.682Z,73.75
2022-12-23T19:56:56.564Z,73.59
2022-12-23T19:58:59.735Z,73.87
2022-12-23T20:01:08.760Z,73.91
2022-12-23T20:03:11.767Z,74.07
2022-12-23T20:05:14.615Z,74.31
2022-12-23T20:07:17.908Z,74.11
2022-12-23T20:09:20.688Z,74.52
2022-12-23T20:11:26.221Z,74.93
2022-12-23T20:13:29.025Z,75.00
2022-12-23T20:15:31.834Z,74.81
2022-12-23T20:17:35.970Z,75.03
2022-12-23T20:19:45.628Z,74.29
2022-12-23T20:21:49.891Z,74.55
2022-12-23T20:23:53.129Z,74.52
2022-12-23T20:25:56.362Z,73.53
2022-12-23T20:27:59.172Z,72.98
2022-12-23T20:30:02.217Z,72.82
2022-12-23T20:32:05.252Z,72.72
2022-12-23T20:34:15.094Z,72.47
2022-12-23T20:36:19.898Z,72.46
2022-12-23T20:38:22.886Z,72.24
2022-12-23T20:40:25.690Z,72.33
2022-12-23T20:42:28.696Z,72.13
2022-12-23T20:44:34.968Z,72.27
2022-12-23T20:46:38.812Z,72.16
2022-12-23T20:48:42.482Z,72.17
2022-12-23T20:50:46.601Z,71.92
2022-12-23T20:52:49.527Z,71.64
2022-12-23T20:54:52.523Z,71.94
2022-12-23T20:56:55.762Z,71.41
2022-12-23T20:59:00.066Z,71.59
2022-12-23T21:01:10.036Z,71.45
2022-12-23T21:03:12.972Z,70.77
2022-12-23T21:05:15.848Z,70.38
2022-12-23T21:07:19.980Z,70.70
2022-12-23T21:09:22.811Z,70.40
2022-12-23T21:11:27.939Z,69.51
2022-12-23T21:13:31.104Z,69.34
2022-12-23T21:15:34.611Z,68.91
2022-12-23T21:17:37.407Z,68.44
2022-12-23T21:19:40.285Z,68.01
2022-12-23T21:21:43.102Z,68.50
2022-12-23T21:23:47.342Z,69.12
2022-12-23T21:25:50.154Z,68.93
2022-12-23T21:27:53.448Z,69.33
2022-12-23T21:29:56.248Z,69.04
2022-12-23T21:32:00.466Z,68.92
2022-12-23T21:34:03.599Z,68.74
2022-12-23T21:36:07.791Z,68.68
2022-12-23T21:38:10.683Z,68.44
2022-12-23T21:40:15.836Z,68.50
2022-12-23T21:42:18.688Z,68.58
2022-12-23T21:44:21.469Z,68.56
2022-12-23T21:46:25.404Z,67.87
2022-12-23T21:48:31.249Z,68.00
2022-12-23T21:50:34.131Z,67.51
2022-12-23T21:52:36.924Z,67.68
2022-12-23T21:54:39.706Z,67.60
2022-12-23T21:56:43.903Z,67.67
2022-12-23T21:58:47.038Z,67.33
2022-12-23T22:00:49.934Z,67.17
2022-12-23T22:02:52.807Z,67.32
2022-12-23T22:04:55.600Z,67.83
2022-12-23T22:06:58.407Z,68.35
2022-12-23T22:09:01.502Z,67.73
2022-12-23T22:11:07.477Z,67.36
2022-12-23T22:13:11.687Z,67.63
2022-12-23T22:15:14.539Z,67.87
2022-12-23T22:17:17.339Z,67.51
2022-12-23T22:19:20.353Z,67.66
2022-12-23T22:21:24.545Z,67.65
2022-12-23T22:23:27.310Z,67.94
2022-12-23T22:25:30.113Z,67.83
2022-12-23T22:27:33.004Z,68.02
2022-12-23T22:29:37.166Z,67.09
2022-12-23T22:31:42.898Z,67.13
2022-12-23T22:33:46.462Z,67.65
2022-12-23T22:35:55.095Z,67.54
2022-12-23T22:37:58.035Z,67.68
2022-12-23T22:40:00.889Z,67.50
2022-12-23T22:42:03.708Z,67.50
2022-12-23T22:44:06.604Z,67.25
2022-12-23T22:46:10.880Z,67.44
2022-12-23T22:48:14.175Z,67.45
2022-12-23T22:50:16.999Z,67.40
2022-12-23T22:52:19.803Z,67.57
2022-12-23T22:54:22.633Z,67.47
2022-12-23T22:56:26.798Z,67.59
2022-12-23T22:58:31.310Z,67.64
2022-12-23T23:00:34.238Z,67.89
2022-12-23T23:02:38.350Z,67.68
2022-12-23T23:04:41.191Z,68.30
2022-12-23T23:06:44.437Z,67.86
2022-12-23T23:08:47.185Z,67.81
2022-12-23T23:10:49.977Z,68.09
2022-12-23T23:12:52.781Z,67.92
2022-12-23T23:14:55.597Z,68.20
2022-12-23T23:16:58.439Z,68.30
2022-12-23T23:19:02.992Z,68.54
2022-12-23T23:21:06.307Z,68.59
2022-12-23T23:23:09.238Z,68.45
2022-12-23T23:25:12.508Z,68.58
2022-12-23T23:27:16.150Z,68.76
2022-12-23T23:29:18.935Z,69.07
2022-12-23T23:33:44.508Z,69.01
2022-12-23T23:35:55.316Z,69.23
2022-12-23T23:37:58.072Z,69.07
2022-12-23T23:40:01.195Z,69.05
2022-12-23T23:42:04.032Z,69.11
2022-12-23T23:44:06.828Z,68.96
2022-12-23T23:46:09.670Z,68.26
2022-12-23T23:48:13.596Z,68.58
2022-12-23T23:50:16.424Z,68.63
2022-12-23T23:52:20.565Z,68.26
2022-12-23T23:54:23.714Z,68.39
2022-12-23T23:56:28.855Z,68.00
2022-12-23T23:58:36.773Z,67.77
